DLH788 EDDF-OIIE
Flight info
| Callsign | DLH788 |
|---|---|
| Flight time | N/A |
| Altitude | 31000 |
| Route | CINDY8S CINDY Z74 HAREM DCT ASLEP DCT TAKUT L603 BESNI/N0490F330 L605 MIQ DCT ALUTU DCT BIBAG L605 ESEGA DCT SASAL/N0486F350 DCT INVED DCT ARTAT UP975 ERGUN UL124 KONUK/N0497F370 UL124 BONAM L319 OTENA L124 ZAJ R661 MIVAK |
| Aircraft | B742/H-SDFHIRWXY/L |
Departure
| Time | N/A |
|---|---|
| Airport | Frankfurt Main Airport (EDDF) |
Arrival
| Time | 2026-05-05 21:07 |
|---|---|
| Airport | Imam Khomeini International Airport (OIIE) |
| Time | Latitude | Longitude | Altitude | Speed | Heading |
|---|---|---|---|---|---|
| 2026-05-05 20:37 | 36.84255 | 48.25585 | 21023 ft | 383 kts | 121° |
| 2026-05-05 20:37 | 36.83000 | 48.28423 | 21000 ft | 366 kts | 137° |
| 2026-05-05 20:38 | 36.81245 | 48.30626 | 20991 ft | 349 kts | 153° |
| 2026-05-05 20:38 | 36.79266 | 48.32278 | 20996 ft | 350 kts | 149° |
| 2026-05-05 20:38 | 36.77508 | 48.34491 | 20994 ft | 361 kts | 139° |
| 2026-05-05 20:38 | 36.75910 | 48.36939 | 20996 ft | 366 kts | 137° |
| 2026-05-05 20:39 | 36.74332 | 48.39455 | 20995 ft | 368 kts | 136° |
| 2026-05-05 20:39 | 36.72747 | 48.42042 | 20994 ft | 375 kts | 136° |
| 2026-05-05 20:39 | 36.71187 | 48.44650 | 21009 ft | 382 kts | 135° |
| 2026-05-05 20:39 | 36.69626 | 48.47332 | 21027 ft | 381 kts | 134° |
| 2026-05-05 20:40 | 36.68082 | 48.50048 | 21041 ft | 379 kts | 134° |
| 2026-05-05 20:40 | 36.66580 | 48.52734 | 21061 ft | 383 kts | 133° |
| 2026-05-05 20:40 | 36.65064 | 48.55490 | 21053 ft | 384 kts | 133° |
| 2026-05-05 20:40 | 36.63563 | 48.58261 | 21056 ft | 383 kts | 133° |
| 2026-05-05 20:41 | 36.62084 | 48.61032 | 21079 ft | 381 kts | 132° |
| 2026-05-05 20:41 | 36.60621 | 48.63801 | 21087 ft | 385 kts | 132° |
| 2026-05-05 20:41 | 36.59150 | 48.66603 | 21099 ft | 383 kts | 133° |
| 2026-05-05 20:41 | 36.57700 | 48.69352 | 21100 ft | 383 kts | 133° |
| 2026-05-05 20:42 | 36.56234 | 48.72145 | 21105 ft | 383 kts | 132° |
| 2026-05-05 20:42 | 36.54776 | 48.74950 | 21105 ft | 383 kts | 132° |
| 2026-05-05 20:42 | 36.53330 | 48.77750 | 21109 ft | 384 kts | 132° |
| 2026-05-05 20:42 | 36.51896 | 48.80544 | 21110 ft | 385 kts | 131° |
| 2026-05-05 20:43 | 36.50468 | 48.83350 | 21110 ft | 382 kts | 131° |
| 2026-05-05 20:43 | 36.49039 | 48.86170 | 21125 ft | 383 kts | 131° |
| 2026-05-05 20:43 | 36.47619 | 48.88978 | 21134 ft | 385 kts | 131° |
| 2026-05-05 20:43 | 36.46188 | 48.91819 | 21141 ft | 386 kts | 131° |
| 2026-05-05 20:44 | 36.44779 | 48.94630 | 21132 ft | 384 kts | 131° |
| 2026-05-05 20:44 | 36.43361 | 48.97464 | 21143 ft | 384 kts | 131° |
| 2026-05-05 20:44 | 36.41956 | 49.00275 | 21147 ft | 384 kts | 131° |
| 2026-05-05 20:44 | 36.40581 | 49.03029 | 21152 ft | 385 kts | 131° |
| 2026-05-05 20:45 | 36.37755 | 49.08698 | 21135 ft | 385 kts | 130° |
| 2026-05-05 20:45 | 36.36333 | 49.11554 | 21129 ft | 386 kts | 130° |
| 2026-05-05 20:45 | 36.34927 | 49.14377 | 21122 ft | 386 kts | 130° |
| 2026-05-05 20:46 | 36.33511 | 49.17221 | 21116 ft | 387 kts | 130° |
| 2026-05-05 20:46 | 36.32098 | 49.20057 | 21112 ft | 387 kts | 130° |
| 2026-05-05 20:46 | 36.30672 | 49.22922 | 21114 ft | 387 kts | 130° |
| 2026-05-05 20:46 | 36.29263 | 49.25745 | 21111 ft | 388 kts | 130° |
| 2026-05-05 20:47 | 36.27832 | 49.28617 | 21110 ft | 387 kts | 130° |
| 2026-05-05 20:47 | 36.26419 | 49.31451 | 21111 ft | 386 kts | 130° |
| 2026-05-05 20:47 | 36.24990 | 49.34309 | 21113 ft | 389 kts | 130° |
| 2026-05-05 20:47 | 36.23562 | 49.37167 | 21116 ft | 388 kts | 130° |
| 2026-05-05 20:48 | 36.22141 | 49.40008 | 21107 ft | 387 kts | 130° |
| 2026-05-05 20:48 | 36.20729 | 49.42828 | 21105 ft | 386 kts | 130° |
| 2026-05-05 20:48 | 36.19307 | 49.45665 | 21094 ft | 387 kts | 130° |
| 2026-05-05 20:48 | 36.17880 | 49.48510 | 21113 ft | 388 kts | 130° |
| 2026-05-05 20:49 | 36.16451 | 49.51351 | 21101 ft | 389 kts | 130° |
| 2026-05-05 20:49 | 36.15028 | 49.54183 | 21080 ft | 387 kts | 130° |
| 2026-05-05 20:49 | 36.13599 | 49.57024 | 21074 ft | 389 kts | 130° |
| 2026-05-05 20:49 | 36.12169 | 49.59858 | 21072 ft | 389 kts | 130° |
| 2026-05-05 20:50 | 36.10724 | 49.62724 | 21076 ft | 389 kts | 130° |
| 2026-05-05 20:50 | 36.09296 | 49.65548 | 21068 ft | 389 kts | 130° |
| 2026-05-05 20:50 | 36.07837 | 49.68401 | 20988 ft | 388 kts | 131° |
| 2026-05-05 20:50 | 36.06391 | 49.71207 | 20866 ft | 388 kts | 131° |
| 2026-05-05 20:51 | 36.04930 | 49.74051 | 20746 ft | 387 kts | 130° |
| 2026-05-05 20:51 | 36.03502 | 49.76841 | 20633 ft | 384 kts | 130° |
| 2026-05-05 20:51 | 36.02073 | 49.79635 | 20520 ft | 384 kts | 130° |
| 2026-05-05 20:51 | 36.00637 | 49.82444 | 20400 ft | 386 kts | 130° |
| 2026-05-05 20:52 | 35.99194 | 49.85268 | 20268 ft | 387 kts | 130° |
| 2026-05-05 20:52 | 35.97756 | 49.88091 | 20179 ft | 383 kts | 130° |
| 2026-05-05 20:52 | 35.96334 | 49.90877 | 20066 ft | 385 kts | 130° |
| 2026-05-05 20:52 | 35.94904 | 49.93677 | 19948 ft | 384 kts | 130° |
| 2026-05-05 20:53 | 35.93488 | 49.96450 | 19827 ft | 383 kts | 130° |
| 2026-05-05 20:53 | 35.92057 | 49.99251 | 19707 ft | 383 kts | 130° |
| 2026-05-05 20:53 | 35.90638 | 50.02022 | 19586 ft | 383 kts | 130° |
| 2026-05-05 20:53 | 35.89205 | 50.04823 | 19479 ft | 383 kts | 130° |
| 2026-05-05 20:54 | 35.87783 | 50.07601 | 19358 ft | 382 kts | 130° |
| 2026-05-05 20:54 | 35.86347 | 50.10400 | 19214 ft | 378 kts | 130° |
| 2026-05-05 20:54 | 35.84959 | 50.13114 | 19056 ft | 367 kts | 130° |
| 2026-05-05 20:54 | 35.83626 | 50.15717 | 18906 ft | 355 kts | 130° |
| 2026-05-05 20:55 | 35.82319 | 50.18264 | 18761 ft | 346 kts | 131° |
| 2026-05-05 20:55 | 35.81048 | 50.20731 | 18598 ft | 338 kts | 131° |
| 2026-05-05 20:55 | 35.79788 | 50.23168 | 18458 ft | 337 kts | 131° |
| 2026-05-05 20:55 | 35.78504 | 50.25646 | 18310 ft | 339 kts | 131° |
| 2026-05-05 20:56 | 35.77255 | 50.28089 | 18174 ft | 339 kts | 130° |
| 2026-05-05 20:56 | 35.76015 | 50.30584 | 18025 ft | 337 kts | 130° |
| 2026-05-05 20:56 | 35.74793 | 50.33048 | 17888 ft | 338 kts | 130° |
| 2026-05-05 20:56 | 35.73358 | 50.35246 | 17690 ft | 323 kts | 147° |
| 2026-05-05 20:57 | 35.71024 | 50.37496 | 17355 ft | 317 kts | 152° |
| 2026-05-05 20:57 | 35.69821 | 50.38581 | 17182 ft | 315 kts | 152° |
| 2026-05-05 20:57 | 35.68059 | 50.40164 | 16933 ft | 312 kts | 152° |
| 2026-05-05 20:57 | 35.66307 | 50.41739 | 16693 ft | 312 kts | 152° |
| 2026-05-05 20:58 | 35.64566 | 50.43395 | 16427 ft | 318 kts | 143° |
| 2026-05-05 20:58 | 35.63171 | 50.45589 | 15954 ft | 332 kts | 128° |
| 2026-05-05 20:58 | 35.62064 | 50.48085 | 15495 ft | 337 kts | 123° |
| 2026-05-05 20:58 | 35.61049 | 50.50723 | 14976 ft | 341 kts | 122° |
| 2026-05-05 20:59 | 35.60093 | 50.53395 | 14406 ft | 346 kts | 120° |
| 2026-05-05 20:59 | 35.59182 | 50.56145 | 13841 ft | 348 kts | 118° |
| 2026-05-05 20:59 | 35.58309 | 50.58940 | 13286 ft | 347 kts | 117° |
| 2026-05-05 20:59 | 35.57479 | 50.61698 | 12717 ft | 345 kts | 116° |
| 2026-05-05 21:00 | 35.56656 | 50.64479 | 12159 ft | 344 kts | 116° |
| 2026-05-05 21:00 | 35.55848 | 50.67215 | 11591 ft | 337 kts | 116° |
| 2026-05-05 21:00 | 35.55059 | 50.69876 | 11041 ft | 328 kts | 115° |
| 2026-05-05 21:00 | 35.54295 | 50.72475 | 10488 ft | 319 kts | 115° |
| 2026-05-05 21:01 | 35.53552 | 50.75017 | 9977 ft | 311 kts | 115° |
| 2026-05-05 21:01 | 35.52839 | 50.77464 | 9520 ft | 299 kts | 115° |
| 2026-05-05 21:01 | 35.52154 | 50.79815 | 9052 ft | 289 kts | 114° |
| 2026-05-05 21:01 | 35.51477 | 50.82131 | 8525 ft | 282 kts | 114° |
| 2026-05-05 21:02 | 35.50829 | 50.84351 | 8017 ft | 273 kts | 114° |
| 2026-05-05 21:02 | 35.50204 | 50.86491 | 7521 ft | 264 kts | 114° |
| 2026-05-05 21:02 | 35.49601 | 50.88553 | 7156 ft | 250 kts | 114° |
| 2026-05-05 21:02 | 35.49026 | 50.90516 | 6775 ft | 239 kts | 114° |
| 2026-05-05 21:03 | 35.48473 | 50.92403 | 6368 ft | 229 kts | 113° |
| 2026-05-05 21:03 | 35.47944 | 50.94207 | 6004 ft | 217 kts | 113° |
| 2026-05-05 21:03 | 35.47443 | 50.95911 | 5646 ft | 208 kts | 112° |
| 2026-05-05 21:03 | 35.46969 | 50.97528 | 5421 ft | 193 kts | 113° |
| 2026-05-05 21:04 | 35.46537 | 50.99000 | 5353 ft | 170 kts | 114° |
| 2026-05-05 21:04 | 35.46151 | 51.00311 | 5318 ft | 160 kts | 114° |
| 2026-05-05 21:04 | 35.45776 | 51.01584 | 5320 ft | 156 kts | 114° |
| 2026-05-05 21:04 | 35.45405 | 51.02839 | 5251 ft | 158 kts | 113° |
| 2026-05-05 21:05 | 35.45035 | 51.04094 | 5028 ft | 154 kts | 112° |
| 2026-05-05 21:05 | 35.44671 | 51.05327 | 4788 ft | 152 kts | 112° |
| 2026-05-05 21:05 | 35.44315 | 51.06545 | 4519 ft | 152 kts | 111° |
| 2026-05-05 21:05 | 35.43928 | 51.07750 | 4186 ft | 151 kts | 117° |
| 2026-05-05 21:06 | 35.43466 | 51.08885 | 3887 ft | 147 kts | 112° |
| 2026-05-05 21:06 | 35.43137 | 51.10086 | 3697 ft | 149 kts | 109° |
| 2026-05-05 21:06 | 35.42794 | 51.11275 | 3498 ft | 145 kts | 109° |
| 2026-05-05 21:06 | 35.42472 | 51.12451 | 3336 ft | 146 kts | 108° |
| 2026-05-05 21:07 | 35.42160 | 51.13564 | 3324 ft | 121 kts | 109° |
| 2026-05-05 21:07 | 35.41940 | 51.14370 | 3323 ft | 78 kts | 110° |
| 2026-05-05 21:07 | 35.41824 | 51.14779 | 3323 ft | 35 kts | 108° |
| 2026-05-05 21:07 | 35.41703 | 51.15030 | 3323 ft | 32 kts | 135° |
| 2026-05-05 21:08 | 35.41561 | 51.15187 | 3323 ft | 23 kts | 140° |
| 2026-05-05 21:08 | 35.41449 | 51.15218 | 3323 ft | 16 kts | 197° |
| 2026-05-05 21:08 | 35.41346 | 51.15180 | 3323 ft | 14 kts | 199° |
| 2026-05-05 21:08 | 35.41256 | 51.15140 | 3323 ft | 13 kts | 199° |
| 2026-05-05 21:09 | 35.41214 | 51.15173 | 3323 ft | 7 kts | 109° |
| 2026-05-05 21:09 | 35.41191 | 51.15256 | 3322 ft | 14 kts | 109° |
| 2026-05-05 21:09 | 35.41156 | 51.15380 | 3322 ft | 14 kts | 108° |
| 2026-05-05 21:09 | 35.41125 | 51.15494 | 3322 ft | 13 kts | 108° |
| 2026-05-05 21:10 | 35.41096 | 51.15595 | 3322 ft | 10 kts | 125° |
| 2026-05-05 21:10 | 35.41069 | 51.15611 | 3322 ft | 2 kts | 179° |
| 2026-05-05 21:10 | 35.41059 | 51.15610 | 3322 ft | 1 kts | 189° |
| 2026-05-05 21:10 | 35.41043 | 51.15605 | 3322 ft | 5 kts | 195° |
| 2026-05-05 21:11 | 35.41018 | 51.15595 | 3322 ft | 1 kts | 199° |
| 2026-05-05 21:11 | 35.41013 | 51.15593 | 3322 ft | 0 kts | 198° |